Accueil
METAR-TAF:

METAR-TAF

Aéroports :

Ndjamena, Tchad

Aéroport international de Ndjamena

latitude: 12-08N, longitude: 015-02E, altitude: 295 m

Observation

Le bulletin a été fait il y a 2 heures et 0 minutes, à 02:00 UTC
Vent 4 kt de nord/nord-ouest
Température 23°C
Humidité 38%
Pression 1009 hPa
Visibilité 10 km ou plus
pas de nuages en-dessous de 1500 mètres et pas de cumulonimbus.

METAR: FTTJ 240200Z 34004KT CAVOK 23/08 Q1009 NOSIG

Heure: 05:00 (04:00 UTC)

Prévision

Le bulletin a été fait il y a 5 heures et 0 minutes, à 23:00 UTC
Prévision valable du 24 à 00 UTC au 25 à 06 UTC
Vent 4 kt de nord
Visibilité: 4000 m
brume sèche
Temporairement
du 24 à 08 UTC au 24 à 15 UTC
Vent 12 kt de est/nord-est
Visibilité: 6000 m

TAF: FTTJ 232300Z 2400/2506 36004KT 4000 HZ TEMPO 2408/2415 06012KT 6000 NSC

Observations et prévisions météorologiques de plus de 4000 aéroports (messages METAR et TAF).

Les stations disponibles sont représentées par des disques jaunes et rouges sur la carte.

Passer la souris dessus pour voir le nom de la station.

Cliquer dessus pour voir les observations et prévisions météorologiques.

Pour changer de carte: cliquez sur les boutons verts avec une croix noire pour zoomer, sur le bouton vert avec un tiret pour effectuer un zoom arrière, ou sur les flèches vertes pour les cartes adjacentes.


METAR-TAF: